createdAt,value
2017-09-20T00:00:22.939Z,137.5
2017-09-20T00:01:25.446Z,149.5
2017-09-20T00:02:30.206Z,240.5
2017-09-20T00:03:31.862Z,272.8
2017-09-20T00:04:34.074Z,205.6
2017-09-20T00:05:37.153Z,181.8
2017-09-20T00:06:41.330Z,143.9
2017-09-20T00:07:46.956Z,134.1
2017-09-20T00:08:50.796Z,128.2
2017-09-20T00:09:54.106Z,152.0
2017-09-20T00:10:59.619Z,152.7
2017-09-20T00:12:04.017Z,149.0
2017-09-20T00:13:09.130Z,120.6
2017-09-20T00:14:10.800Z,114.8
2017-09-20T00:15:13.990Z,119.2
2017-09-20T00:16:18.971Z,106.0
2017-09-20T00:17:21.121Z,102.5
2017-09-20T00:18:24.859Z,96.4
2017-09-20T00:19:24.996Z,99.2
2017-09-20T00:20:28.957Z,110.3
2017-09-20T00:21:30.608Z,110.2
2017-09-20T00:22:32.956Z,113.0
2017-09-20T00:23:35.109Z,105.2
2017-09-20T00:24:38.156Z,101.6
2017-09-20T00:25:42.962Z,87.7
2017-09-20T00:26:47.182Z,84.9
2017-09-20T00:27:51.928Z,82.3
2017-09-20T00:28:57.865Z,76.7
2017-09-20T00:30:01.682Z,78.0
2017-09-20T00:31:03.948Z,79.2
2017-09-20T00:32:08.172Z,82.4
2017-09-20T00:33:09.821Z,78.0
2017-09-20T00:34:11.976Z,81.7
2017-09-20T00:35:15.419Z,78.7
2017-09-20T00:36:17.073Z,77.8
2017-09-20T00:37:20.478Z,75.9
2017-09-20T00:38:22.879Z,69.4
2017-09-20T00:39:25.081Z,67.5
2017-09-20T00:40:30.494Z,76.3
2017-09-20T00:41:35.449Z,63.3
2017-09-20T00:42:37.989Z,67.4
2017-09-20T00:43:41.296Z,72.7
2017-09-20T00:44:46.089Z,74.0
2017-09-20T00:45:50.081Z,71.0
2017-09-20T00:46:54.691Z,71.3
2017-09-20T00:47:58.001Z,69.2
2017-09-20T00:49:01.562Z,65.5
2017-09-20T00:50:03.207Z,64.3
2017-09-20T00:51:07.602Z,64.9
2017-09-20T00:52:09.860Z,62.5
2017-09-20T00:53:12.908Z,65.3
2017-09-20T00:54:15.193Z,62.8
2017-09-20T00:55:19.861Z,68.2
2017-09-20T00:56:21.607Z,58.6
2017-09-20T00:57:23.259Z,58.8
2017-09-20T00:58:27.366Z,58.5
2017-09-20T00:59:31.860Z,51.2
2017-09-20T01:00:35.436Z,61.4
2017-09-20T01:01:39.539Z,57.5
2017-09-20T01:02:41.197Z,56.0
2017-09-20T01:03:44.462Z,66.3
2017-09-20T01:04:48.824Z,55.2
2017-09-20T01:05:51.208Z,62.6
2017-09-20T01:06:54.858Z,61.0
2017-09-20T01:07:56.595Z,62.6
2017-09-20T01:08:59.157Z,67.9
2017-09-20T01:10:02.558Z,72.5
2017-09-20T01:11:06.438Z,69.5
2017-09-20T01:12:08.103Z,68.1
2017-09-20T01:13:11.486Z,60.0
2017-09-20T01:14:14.882Z,57.7
2017-09-20T01:15:17.404Z,59.9
2017-09-20T01:16:20.703Z,71.6
2017-09-20T01:17:24.052Z,77.1
2017-09-20T01:18:28.128Z,81.3
2017-09-20T01:19:31.047Z,76.8
2017-09-20T01:20:34.195Z,70.8
2017-09-20T01:21:36.733Z,71.0
2017-09-20T01:22:41.472Z,66.5
2017-09-20T01:23:44.478Z,73.7
2017-09-20T01:24:47.064Z,70.3
2017-09-20T01:25:50.415Z,70.6
2017-09-20T01:26:54.368Z,75.2
2017-09-20T01:27:59.153Z,69.9
2017-09-20T01:29:04.011Z,69.0
2017-09-20T01:30:07.244Z,68.3
2017-09-20T01:31:10.870Z,71.1
2017-09-20T01:32:14.843Z,76.8
2017-09-20T01:33:17.916Z,66.1
2017-09-20T01:34:21.364Z,66.9
2017-09-20T01:35:24.364Z,72.6
2017-09-20T01:36:25.263Z,72.2
2017-09-20T01:37:29.444Z,71.2
2017-09-20T01:38:32.565Z,74.5
2017-09-20T01:39:36.030Z,70.3
2017-09-20T01:40:39.108Z,66.9
2017-09-20T01:41:41.618Z,81.1
2017-09-20T01:42:44.131Z,77.3
2017-09-20T01:43:47.432Z,62.4
2017-09-20T01:44:49.084Z,67.4
2017-09-20T01:45:53.409Z,63.4
2017-09-20T01:46:56.443Z,62.3
2017-09-20T01:47:59.473Z,67.6
2017-09-20T01:49:04.369Z,72.3
2017-09-20T01:50:07.861Z,64.1
2017-09-20T01:51:09.521Z,69.9
2017-09-20T01:52:14.549Z,74.8
2017-09-20T01:53:18.864Z,83.3
2017-09-20T01:54:21.414Z,82.1
2017-09-20T02:01:06.961Z,80.8
2017-09-20T02:02:10.807Z,73.1
2017-09-20T02:03:14.697Z,70.1
2017-09-20T02:04:19.063Z,74.7
2017-09-20T02:05:21.685Z,67.2
2017-09-20T02:06:24.034Z,74.4
2017-09-20T02:07:28.034Z,76.2
2017-09-20T02:08:30.189Z,71.3
2017-09-20T02:09:33.207Z,69.4
2017-09-20T02:10:36.565Z,75.8
2017-09-20T02:11:40.213Z,70.4
2017-09-20T02:12:46.640Z,75.1
2017-09-20T02:13:49.778Z,70.3
2017-09-20T02:14:54.821Z,73.5
2017-09-20T02:15:58.959Z,69.1
2017-09-20T02:16:59.625Z,72.9
2017-09-20T02:18:04.459Z,69.8
2017-09-20T02:19:06.808Z,71.0
2017-09-20T02:20:09.032Z,71.4
2017-09-20T02:21:11.274Z,72.3
2017-09-20T02:22:17.185Z,67.4
2017-09-20T02:23:19.759Z,76.3
2017-09-20T02:24:24.102Z,69.5
2017-09-20T02:25:28.079Z,73.9
2017-09-20T02:26:32.539Z,73.7
2017-09-20T02:27:37.580Z,74.2
2017-09-20T02:28:39.957Z,72.9
2017-09-20T02:29:42.269Z,79.6
2017-09-20T02:30:47.217Z,77.0
2017-09-20T02:31:52.573Z,73.5
2017-09-20T02:32:54.228Z,70.4
2017-09-20T02:33:56.513Z,78.7
2017-09-20T02:34:59.043Z,86.5
2017-09-20T02:36:01.440Z,80.7
2017-09-20T02:37:03.100Z,69.8
2017-09-20T02:38:05.539Z,72.7
2017-09-20T02:39:10.025Z,79.5
2017-09-20T02:40:13.865Z,84.9
2017-09-20T02:41:17.802Z,74.2
2017-09-20T02:42:20.616Z,81.4
2017-09-20T02:43:22.266Z,76.8
2017-09-20T02:44:25.492Z,76.4
2017-09-20T02:45:28.461Z,79.0
2017-09-20T02:46:31.075Z,78.5
2017-09-20T02:47:35.072Z,77.5
2017-09-20T02:48:39.461Z,74.1
2017-09-20T02:49:41.145Z,71.3
2017-09-20T02:50:43.587Z,64.0
2017-09-20T02:51:45.228Z,69.9
2017-09-20T02:52:49.523Z,69.2
2017-09-20T02:53:54.466Z,67.4
2017-09-20T02:54:57.039Z,72.1
2017-09-20T02:56:02.688Z,60.3
2017-09-20T02:57:05.625Z,62.0
2017-09-20T02:58:08.961Z,60.8
2017-09-20T02:59:09.839Z,64.6
2017-09-20T03:00:13.569Z,60.8
2017-09-20T03:01:15.811Z,64.8
2017-09-20T03:02:21.962Z,63.8
2017-09-20T03:03:25.121Z,63.5
2017-09-20T03:04:29.511Z,63.0
2017-09-20T03:05:32.072Z,66.9
2017-09-20T03:06:35.076Z,67.5
2017-09-20T03:07:39.086Z,67.6
2017-09-20T03:08:40.733Z,65.6
2017-09-20T03:09:44.069Z,59.2
2017-09-20T03:10:47.110Z,68.2
2017-09-20T03:11:49.680Z,64.1
2017-09-20T03:12:51.977Z,72.6
2017-09-20T03:13:56.100Z,68.7
2017-09-20T03:14:57.753Z,78.2
2017-09-20T03:16:00.991Z,72.7
2017-09-20T03:17:04.054Z,76.0
2017-09-20T03:18:06.464Z,73.8
2017-09-20T03:19:09.965Z,80.7
2017-09-20T03:20:15.480Z,81.8
2017-09-20T03:21:19.126Z,75.9
2017-09-20T03:22:24.115Z,69.3
2017-09-20T03:23:28.089Z,73.4
2017-09-20T03:24:29.741Z,70.5
2017-09-20T03:25:33.027Z,64.9
2017-09-20T03:26:36.517Z,65.9
2017-09-20T03:27:38.172Z,68.1
2017-09-20T03:28:40.310Z,67.2
2017-09-20T03:29:43.753Z,64.6
2017-09-20T03:30:47.131Z,61.8
2017-09-20T03:31:50.084Z,68.6
2017-09-20T03:32:53.496Z,60.2
2017-09-20T03:33:56.834Z,62.9
2017-09-20T03:34:59.675Z,65.9
2017-09-20T03:36:04.204Z,65.8
2017-09-20T03:37:09.170Z,67.7
2017-09-20T03:38:12.656Z,67.7
2017-09-20T03:39:14.304Z,71.1
2017-09-20T03:40:16.644Z,74.0
2017-09-20T03:41:19.834Z,67.2
2017-09-20T03:42:22.326Z,72.6
2017-09-20T03:43:25.193Z,67.5
2017-09-20T03:44:27.758Z,73.2
2017-09-20T03:45:32.133Z,70.6
2017-09-20T03:46:36.962Z,70.4
2017-09-20T03:47:38.965Z,71.0
2017-09-20T03:48:43.031Z,66.8
2017-09-20T03:49:46.979Z,64.4
2017-09-20T03:50:50.241Z,60.9
2017-09-20T03:51:52.682Z,63.9
2017-09-20T03:52:55.706Z,62.6
2017-09-20T03:53:57.363Z,63.1
2017-09-20T03:55:00.961Z,61.8
2017-09-20T03:56:03.062Z,59.9
2017-09-20T03:57:04.711Z,58.9
2017-09-20T03:58:08.363Z,65.1
2017-09-20T03:59:10.018Z,58.7
2017-09-20T04:00:13.984Z,57.4
2017-09-20T04:01:18.962Z,58.5
2017-09-20T04:02:22.132Z,59.0
2017-09-20T04:03:24.521Z,60.7
2017-09-20T04:04:26.690Z,62.1
2017-09-20T04:05:30.075Z,61.8
2017-09-20T04:06:31.738Z,64.9
2017-09-20T04:07:34.055Z,65.6
2017-09-20T04:08:37.462Z,60.9
2017-09-20T04:09:38.824Z,55.9
2017-09-20T04:10:42.755Z,62.4
2017-09-20T04:11:47.109Z,61.8
2017-09-20T04:12:49.741Z,54.9
2017-09-20T04:13:51.986Z,58.4
2017-09-20T04:14:54.176Z,60.5
2017-09-20T04:15:56.698Z,56.6
2017-09-20T04:16:59.077Z,60.3
2017-09-20T04:18:02.787Z,59.3
2017-09-20T04:19:07.255Z,56.7
2017-09-20T04:20:11.081Z,53.4
2017-09-20T04:21:14.111Z,57.0
2017-09-20T04:22:17.283Z,52.9
2017-09-20T04:23:21.003Z,50.9
2017-09-20T04:24:23.462Z,54.3
2017-09-20T04:25:25.859Z,53.9
2017-09-20T04:26:29.466Z,54.7
2017-09-20T04:27:31.831Z,51.3
2017-09-20T04:28:34.334Z,51.6
2017-09-20T04:29:36.009Z,57.4
2017-09-20T04:30:40.070Z,55.9
2017-09-20T04:31:47.965Z,53.0
2017-09-20T04:33:13.966Z,53.4
2017-09-20T04:34:15.385Z,52.7
2017-09-20T04:35:19.107Z,58.3
2017-09-20T04:36:21.565Z,53.3
2017-09-20T04:37:23.970Z,55.3
2017-09-20T04:38:27.589Z,58.3
2017-09-20T04:39:30.829Z,56.6
2017-09-20T04:40:34.702Z,64.0
2017-09-20T04:41:37.657Z,63.7
2017-09-20T04:42:42.110Z,60.3
2017-09-20T04:43:44.706Z,65.1
2017-09-20T04:44:47.853Z,60.2
2017-09-20T04:45:51.567Z,67.0
2017-09-20T04:46:54.352Z,67.1
2017-09-20T04:47:57.134Z,80.1
2017-09-20T04:48:59.714Z,72.7
2017-09-20T04:50:01.370Z,75.3
2017-09-20T04:51:08.102Z,68.5
2017-09-20T04:52:11.273Z,68.1
2017-09-20T04:53:14.587Z,61.0
2017-09-20T04:54:18.589Z,65.2
2017-09-20T04:55:21.781Z,67.2
2017-09-20T04:56:24.181Z,63.7
2017-09-20T04:57:28.585Z,60.1
2017-09-20T04:58:35.664Z,63.3
2017-09-20T04:59:40.234Z,63.9
2017-09-20T05:00:44.975Z,57.4
2017-09-20T05:01:45.922Z,62.1
2017-09-20T05:02:50.468Z,61.9
2017-09-20T05:03:52.034Z,65.2
2017-09-20T05:04:54.902Z,62.9
2017-09-20T05:05:58.018Z,62.6
2017-09-20T05:07:01.966Z,59.0
2017-09-20T05:08:03.758Z,59.3
2017-09-20T05:09:05.415Z,56.2
2017-09-20T05:10:09.466Z,67.5
2017-09-20T05:11:10.973Z,60.8
2017-09-20T05:12:15.198Z,65.3
2017-09-20T05:13:18.633Z,58.4
2017-09-20T05:14:22.577Z,63.6
2017-09-20T05:15:24.226Z,65.2
2017-09-20T05:16:28.104Z,62.4
2017-09-20T05:17:36.205Z,65.5
2017-09-20T05:18:40.474Z,68.8
2017-09-20T05:19:48.542Z,64.3
2017-09-20T05:21:04.645Z,65.2
2017-09-20T05:22:07.127Z,70.3
2017-09-20T05:23:10.093Z,73.2
2017-09-20T05:24:12.358Z,64.4
2017-09-20T05:25:15.219Z,66.9
2017-09-20T05:26:18.971Z,61.4
2017-09-20T05:27:23.586Z,62.4
2017-09-20T05:28:30.098Z,65.9
2017-09-20T05:29:31.754Z,66.0
2017-09-20T05:30:38.550Z,64.4
2017-09-20T05:31:44.130Z,67.0
2017-09-20T05:32:46.362Z,66.2
2017-09-20T05:33:50.308Z,61.5
2017-09-20T05:34:53.534Z,64.4
2017-09-20T05:35:58.502Z,61.0
2017-09-20T05:37:02.172Z,61.8
2017-09-20T05:38:05.266Z,66.6
2017-09-20T05:39:07.348Z,65.9
2017-09-20T05:40:10.555Z,62.8
2017-09-20T05:41:13.424Z,64.9
2017-09-20T05:42:19.013Z,67.8
2017-09-20T05:43:21.556Z,64.0
2017-09-20T05:44:23.705Z,64.6
2017-09-20T05:45:25.368Z,63.6
2017-09-20T05:46:29.468Z,69.4
2017-09-20T05:47:31.088Z,59.5
2017-09-20T05:48:35.072Z,67.2
2017-09-20T05:49:37.695Z,68.6
2017-09-20T05:50:39.996Z,74.4
2017-09-20T05:51:43.974Z,66.6
2017-09-20T05:52:49.235Z,65.2
2017-09-20T05:53:51.891Z,64.5
2017-09-20T05:54:55.207Z,69.1
2017-09-20T05:55:59.711Z,72.9
2017-09-20T06:01:57.114Z,56.0
2017-09-20T10:01:33.103Z,37.7
2017-09-20T10:02:37.155Z,40.5
2017-09-20T10:03:42.004Z,39.7
2017-09-20T10:04:43.695Z,41.2
2017-09-20T10:05:47.673Z,37.3
2017-09-20T10:06:51.038Z,35.8
2017-09-20T10:07:55.526Z,37.3
2017-09-20T10:08:57.870Z,35.9
2017-09-20T10:10:00.808Z,40.7
2017-09-20T10:11:04.632Z,38.0
2017-09-20T10:12:07.712Z,40.7
2017-09-20T10:13:10.635Z,41.6
2017-09-20T10:14:15.077Z,38.9
2017-09-20T10:15:20.506Z,42.2
2017-09-20T10:16:22.966Z,38.8
2017-09-20T10:17:27.594Z,33.2
2017-09-20T10:18:29.259Z,30.1
2017-09-20T10:19:31.535Z,29.5
2017-09-20T10:20:37.488Z,29.5
2017-09-20T10:21:41.846Z,33.6
2017-09-20T10:22:45.726Z,26.2
2017-09-20T10:23:49.032Z,28.6
2017-09-20T10:24:52.788Z,25.3
2017-09-20T10:25:57.570Z,23.5
2017-09-20T10:27:01.959Z,24.2
2017-09-20T10:28:06.942Z,23.6
2017-09-20T10:29:10.739Z,28.4
2017-09-20T10:30:12.736Z,21.3
2017-09-20T10:31:19.135Z,19.0
2017-09-20T10:32:26.193Z,15.8
2017-09-20T10:33:31.482Z,16.7
2017-09-20T10:34:38.608Z,15.8
2017-09-20T10:35:43.517Z,14.0
2017-09-20T10:36:47.569Z,14.5
2017-09-20T10:37:49.981Z,16.2
2017-09-20T10:38:54.103Z,13.0
2017-09-20T10:39:55.837Z,15.6
2017-09-20T10:40:59.012Z,16.2
2017-09-20T10:42:00.212Z,12.0
2017-09-20T10:43:04.509Z,14.0
2017-09-20T10:44:07.573Z,16.1
2017-09-20T10:45:11.163Z,15.4
2017-09-20T10:46:14.094Z,13.7
2017-09-20T10:47:17.574Z,13.0
2017-09-20T10:48:19.292Z,11.9
2017-09-20T10:49:22.005Z,14.7
2017-09-20T10:50:23.820Z,16.7
2017-09-20T10:51:26.544Z,15.1
2017-09-20T10:52:29.917Z,13.8
2017-09-20T10:53:33.461Z,13.1
2017-09-20T10:54:36.987Z,12.0
2017-09-20T10:55:41.149Z,13.3
2017-09-20T10:56:43.796Z,12.3
2017-09-20T10:57:47.871Z,12.6
2017-09-20T10:58:52.021Z,14.2
2017-09-20T11:00:07.018Z,14.5
2017-09-20T11:01:10.577Z,16.0
2017-09-20T11:02:16.008Z,13.6
2017-09-20T11:03:18.698Z,15.5
2017-09-20T11:04:23.217Z,14.6
2017-09-20T11:05:27.539Z,14.5
2017-09-20T11:06:39.599Z,13.7
2017-09-20T11:07:55.033Z,15.0
2017-09-20T11:09:00.179Z,13.5
2017-09-20T11:10:02.745Z,12.1
2017-09-20T11:11:06.489Z,12.5
2017-09-20T11:12:10.133Z,10.4
2017-09-20T11:13:16.365Z,11.0
2017-09-20T11:14:17.905Z,11.4
2017-09-20T11:15:21.239Z,9.5
2017-09-20T11:16:23.071Z,8.9
2017-09-20T11:17:26.384Z,8.5
2017-09-20T11:18:35.544Z,8.7
2017-09-20T11:19:36.577Z,8.9
2017-09-20T11:20:38.358Z,9.3
2017-09-20T11:21:41.670Z,8.3
2017-09-20T11:22:46.271Z,7.8
2017-09-20T11:23:50.055Z,8.1
2017-09-20T11:24:52.323Z,7.7
2017-09-20T11:25:54.971Z,9.4
2017-09-20T11:26:58.361Z,8.6
2017-09-20T11:28:00.915Z,7.4
2017-09-20T11:29:05.162Z,7.0
2017-09-20T11:30:07.719Z,7.4
2017-09-20T11:31:13.259Z,7.9
2017-09-20T11:32:15.725Z,7.5
2017-09-20T11:33:18.710Z,10.6
2017-09-20T11:34:22.944Z,8.4
2017-09-20T11:35:25.543Z,6.9
2017-09-20T11:36:27.569Z,5.7
2017-09-20T11:37:30.997Z,6.3
2017-09-20T11:38:32.757Z,9.2
2017-09-20T11:39:35.084Z,11.5
2017-09-20T11:40:40.145Z,19.3
2017-09-20T11:41:42.678Z,9.0
2017-09-20T11:42:45.930Z,5.8
2017-09-20T11:43:54.325Z,7.7
2017-09-20T11:45:10.869Z,8.1
2017-09-20T11:46:16.979Z,5.4
2017-09-20T11:47:21.197Z,6.2
2017-09-20T11:48:28.982Z,6.5
2017-09-20T11:49:31.807Z,5.2
2017-09-20T11:50:35.729Z,4.5
2017-09-20T11:51:37.684Z,11.0
2017-09-20T11:52:41.167Z,19.1
2017-09-20T11:53:45.983Z,8.5
2017-09-20T11:54:48.521Z,7.1
2017-09-20T11:55:52.371Z,8.3
2017-09-20T11:56:54.281Z,6.1
2017-09-20T11:57:56.760Z,5.2
2017-09-20T11:58:59.313Z,4.3
2017-09-20T12:00:04.189Z,5.5
2017-09-20T12:01:07.441Z,4.8
2017-09-20T12:02:10.838Z,6.0
2017-09-20T12:03:13.173Z,4.7
2017-09-20T12:04:17.821Z,7.3
2017-09-20T12:05:21.336Z,6.8
2017-09-20T12:06:23.569Z,6.2
2017-09-20T12:07:27.718Z,6.4
2017-09-20T12:08:31.736Z,6.4
2017-09-20T12:09:34.023Z,8.5
2017-09-20T12:10:38.208Z,10.6
2017-09-20T12:11:45.535Z,6.4
2017-09-20T12:12:48.326Z,8.0
2017-09-20T12:13:51.159Z,7.4
2017-09-20T12:14:54.453Z,7.4
2017-09-20T12:15:58.944Z,6.0
2017-09-20T12:17:02.309Z,10.3
2017-09-20T12:18:08.536Z,9.5
2017-09-20T12:19:12.070Z,6.6
2017-09-20T12:20:20.207Z,6.6
2017-09-20T12:21:23.811Z,8.3
2017-09-20T12:22:28.486Z,7.7
2017-09-20T12:23:32.244Z,10.2
2017-09-20T12:24:36.157Z,7.7
2017-09-20T12:25:41.199Z,9.5
2017-09-20T12:26:45.940Z,8.0
2017-09-20T12:27:48.814Z,8.5
2017-09-20T12:28:51.424Z,8.4
2017-09-20T12:29:55.261Z,7.8
2017-09-20T12:30:58.886Z,9.4
2017-09-20T12:32:02.113Z,8.2
2017-09-20T12:33:05.438Z,8.9
2017-09-20T12:34:09.142Z,9.9
2017-09-20T12:35:13.099Z,9.7
2017-09-20T12:36:15.084Z,9.6
2017-09-20T12:37:19.234Z,8.7
2017-09-20T12:38:26.128Z,10.6
2017-09-20T12:39:30.495Z,9.1
2017-09-20T12:40:34.318Z,8.4
2017-09-20T12:41:37.960Z,9.3
2017-09-20T12:42:40.725Z,8.9
2017-09-20T12:43:47.001Z,10.3
2017-09-20T12:44:52.181Z,11.7
2017-09-20T12:45:54.925Z,11.2
2017-09-20T12:46:59.564Z,10.7
2017-09-20T12:48:02.974Z,17.0
2017-09-20T12:49:05.118Z,14.7
2017-09-20T12:50:08.202Z,10.1
2017-09-20T12:51:11.211Z,11.1
2017-09-20T12:52:12.997Z,12.2
2017-09-20T12:53:14.817Z,13.5
2017-09-20T12:54:16.842Z,12.1
2017-09-20T12:55:18.606Z,13.7
2017-09-20T12:56:23.341Z,12.5
2017-09-20T12:57:25.542Z,16.1
2017-09-20T12:58:27.760Z,14.7
2017-09-20T12:59:29.673Z,13.1
2017-09-20T13:00:31.355Z,12.0
2017-09-20T13:01:33.293Z,11.7
2017-09-20T13:02:35.725Z,12.2
2017-09-20T13:03:37.510Z,12.2
2017-09-20T13:04:41.103Z,10.9
2017-09-20T13:05:47.659Z,10.8
2017-09-20T13:06:53.066Z,11.9
2017-09-20T13:08:00.793Z,11.3
2017-09-20T13:09:06.186Z,10.5
2017-09-20T13:10:12.509Z,12.5
2017-09-20T13:11:16.682Z,14.4
2017-09-20T13:12:26.835Z,10.3
2017-09-20T13:13:29.049Z,11.6
2017-09-20T13:14:30.832Z,15.9
2017-09-20T13:15:32.698Z,13.3
2017-09-20T13:16:36.158Z,10.8
2017-09-20T13:17:38.513Z,13.1
2017-09-20T13:18:40.299Z,10.7
2017-09-20T13:19:42.351Z,8.5
2017-09-20T13:20:44.161Z,11.5
2017-09-20T13:21:45.903Z,10.1
2017-09-20T13:22:48.816Z,11.1
2017-09-20T13:23:50.581Z,11.3
2017-09-20T13:24:53.431Z,9.1
2017-09-20T13:25:55.471Z,10.0
2017-09-20T13:26:57.564Z,12.5
2017-09-20T13:28:01.990Z,10.0
2017-09-20T13:29:04.691Z,11.3
2017-09-20T13:30:06.469Z,10.1
2017-09-20T13:31:08.730Z,11.8
2017-09-20T13:32:10.646Z,9.9
2017-09-20T13:33:13.063Z,11.1
2017-09-20T13:34:14.895Z,12.8
2017-09-20T13:35:23.576Z,12.3
2017-09-20T13:36:25.042Z,12.1
2017-09-20T13:37:27.162Z,11.7
2017-09-20T13:38:28.943Z,9.6
2017-09-20T13:39:30.663Z,9.9
2017-09-20T13:40:33.133Z,13.5
2017-09-20T13:41:40.364Z,10.0
2017-09-20T13:42:44.919Z,12.1
2017-09-20T13:43:47.741Z,9.6
2017-09-20T13:44:49.492Z,9.1
2017-09-20T13:45:51.482Z,10.1
2017-09-20T13:46:53.282Z,10.5
2017-09-20T13:47:55.686Z,11.5
2017-09-20T13:48:57.457Z,12.0
2017-09-20T13:49:59.864Z,9.1
2017-09-20T13:51:01.905Z,13.6
2017-09-20T13:52:04.191Z,52.2
2017-09-20T13:53:05.914Z,26.1
2017-09-20T13:54:08.194Z,14.1
2017-09-20T13:55:09.968Z,16.7
2017-09-20T14:01:00.960Z,13.8
2017-09-20T14:02:02.632Z,12.7
2017-09-20T14:03:05.068Z,12.8
2017-09-20T14:04:06.822Z,14.1
2017-09-20T14:05:08.490Z,13.4
2017-09-20T14:06:10.156Z,12.4
2017-09-20T14:07:12.354Z,12.4
2017-09-20T14:08:14.492Z,13.2
2017-09-20T14:09:16.173Z,13.4
2017-09-20T14:10:18.347Z,12.0
2017-09-20T14:11:20.011Z,13.3
2017-09-20T14:12:22.378Z,15.5
2017-09-20T14:13:24.048Z,12.9
2017-09-20T14:14:25.829Z,13.5
2017-09-20T14:15:27.518Z,15.4
2017-09-20T14:16:29.224Z,12.0
2017-09-20T14:17:31.293Z,12.0
2017-09-20T14:18:33.047Z,13.4
2017-09-20T14:19:34.757Z,14.2
2017-09-20T14:20:36.445Z,14.2
2017-09-20T14:21:38.107Z,14.0
2017-09-20T14:22:39.796Z,14.6
2017-09-20T14:23:44.260Z,14.4
2017-09-20T14:24:45.934Z,16.5
2017-09-20T14:25:47.599Z,13.5
2017-09-20T14:26:49.266Z,18.5
2017-09-20T14:27:50.952Z,13.8
2017-09-20T14:28:52.619Z,13.2
2017-09-20T14:29:54.314Z,16.8
2017-09-20T14:30:55.976Z,15.9
2017-09-20T14:31:57.688Z,15.4
2017-09-20T14:32:59.370Z,15.4
2017-09-20T14:34:01.044Z,17.2
2017-09-20T14:35:02.724Z,20.2
2017-09-20T14:36:04.424Z,16.5
2017-09-20T14:37:06.116Z,16.1
2017-09-20T14:38:07.793Z,15.4
2017-09-20T14:39:09.469Z,13.3
2017-09-20T14:40:11.165Z,15.7
2017-09-20T14:41:12.879Z,16.3
2017-09-20T14:42:14.576Z,16.3
2017-09-20T14:43:16.238Z,16.6
2017-09-20T14:44:17.918Z,17.0
2017-09-20T14:45:19.583Z,17.5
2017-09-20T14:46:21.245Z,14.0
2017-09-20T14:47:22.907Z,15.7
2017-09-20T14:48:24.601Z,17.3
2017-09-20T14:49:26.307Z,16.3
2017-09-20T14:50:27.933Z,16.5
2017-09-20T14:51:29.607Z,17.5
2017-09-20T14:52:31.271Z,17.1
2017-09-20T14:53:32.961Z,17.1
2017-09-20T14:54:34.654Z,17.4
2017-09-20T14:55:36.333Z,14.2
2017-09-20T14:56:38.004Z,16.5
2017-09-20T14:57:39.678Z,17.7
2017-09-20T14:58:41.368Z,17.7
2017-09-20T14:59:43.085Z,18.5
2017-09-20T15:00:44.756Z,15.8
2017-09-20T15:01:46.430Z,19.4
2017-09-20T15:02:48.098Z,16.5
2017-09-20T15:03:49.772Z,16.4
2017-09-20T15:04:51.441Z,14.6
2017-09-20T15:05:53.169Z,16.5
2017-09-20T15:06:54.854Z,15.8
2017-09-20T15:07:56.518Z,14.3
2017-09-20T15:08:58.198Z,18.0
2017-09-20T15:10:00.023Z,17.1
2017-09-20T15:11:02.351Z,16.8
2017-09-20T15:12:04.023Z,15.1
2017-09-20T15:13:05.739Z,16.6
2017-09-20T15:14:07.462Z,15.3
2017-09-20T15:15:09.121Z,18.6
2017-09-20T15:16:10.789Z,19.5
2017-09-20T15:17:12.479Z,15.7
2017-09-20T15:18:14.146Z,14.3
2017-09-20T15:19:15.839Z,15.3
2017-09-20T15:20:17.518Z,13.5
2017-09-20T15:21:19.289Z,13.9
2017-09-20T15:22:20.967Z,15.9
2017-09-20T15:23:22.662Z,17.1
2017-09-20T15:24:24.340Z,14.9
2017-09-20T15:25:26.001Z,13.8
2017-09-20T15:26:27.669Z,14.7
2017-09-20T15:27:29.342Z,15.4
2017-09-20T15:28:31.002Z,16.8
2017-09-20T15:29:32.672Z,17.1
2017-09-20T15:30:34.352Z,15.6
2017-09-20T15:31:36.034Z,14.4
2017-09-20T15:32:37.713Z,13.5
2017-09-20T15:33:39.386Z,16.7
2017-09-20T15:34:41.080Z,14.7
2017-09-20T15:35:42.798Z,14.3
2017-09-20T15:36:48.594Z,16.1
2017-09-20T15:37:55.208Z,15.4
2017-09-20T15:38:56.880Z,18.8
2017-09-20T15:39:58.554Z,16.1
2017-09-20T15:41:00.249Z,13.6
2017-09-20T15:42:01.910Z,15.6
2017-09-20T15:43:03.587Z,16.7
2017-09-20T15:44:05.388Z,13.5
2017-09-20T15:45:07.098Z,15.2
2017-09-20T15:46:08.753Z,18.8
2017-09-20T15:47:10.433Z,15.1
2017-09-20T15:48:12.101Z,13.9
2017-09-20T15:49:13.820Z,15.6
2017-09-20T15:50:15.491Z,15.7
2017-09-20T15:51:17.148Z,16.7
2017-09-20T15:52:18.811Z,16.3
2017-09-20T15:53:20.742Z,16.4
2017-09-20T15:54:22.418Z,14.9
2017-09-20T15:55:24.079Z,13.5
2017-09-20T15:56:25.754Z,14.4
2017-09-20T15:57:27.442Z,15.1
2017-09-20T15:58:29.111Z,13.7
2017-09-20T15:59:30.778Z,15.9
2017-09-20T16:00:32.446Z,11.4
2017-09-20T16:01:34.211Z,17.0
2017-09-20T16:02:35.893Z,15.7
2017-09-20T16:03:37.566Z,14.2
2017-09-20T16:04:39.245Z,16.2
2017-09-20T16:05:40.983Z,14.2
2017-09-20T16:06:42.654Z,16.5
2017-09-20T16:07:44.443Z,16.6
2017-09-20T16:08:46.102Z,16.6
2017-09-20T16:09:47.763Z,12.9
2017-09-20T16:10:49.429Z,13.7
2017-09-20T16:11:51.091Z,18.9
2017-09-20T16:12:52.761Z,16.4
2017-09-20T16:13:54.434Z,15.3
2017-09-20T16:14:56.104Z,13.9
2017-09-20T16:15:57.777Z,17.2
2017-09-20T16:16:59.439Z,17.2
2017-09-20T16:18:01.106Z,17.1
2017-09-20T16:19:02.785Z,16.2
2017-09-20T16:20:04.449Z,16.8
2017-09-20T16:21:06.109Z,17.0
2017-09-20T16:22:07.771Z,15.6
2017-09-20T16:23:09.442Z,17.9
2017-09-20T16:24:11.124Z,17.4
2017-09-20T16:25:12.802Z,15.3
2017-09-20T16:26:14.457Z,17.1
2017-09-20T16:27:16.131Z,17.0
2017-09-20T16:28:17.845Z,15.9
2017-09-20T16:29:19.499Z,18.0
2017-09-20T16:30:21.172Z,18.8
2017-09-20T16:31:22.853Z,17.2
2017-09-20T16:32:24.543Z,16.3
2017-09-20T16:33:26.217Z,18.5
2017-09-20T16:34:27.871Z,18.1
2017-09-20T16:35:29.564Z,18.8
2017-09-20T16:36:31.224Z,17.7
2017-09-20T16:37:32.899Z,19.1
2017-09-20T16:38:34.572Z,23.6
2017-09-20T16:39:36.244Z,18.5
2017-09-20T16:40:37.913Z,19.9
2017-09-20T16:41:39.576Z,19.9
2017-09-20T16:42:41.239Z,19.1
2017-09-20T16:43:42.910Z,22.3
2017-09-20T16:44:44.588Z,19.5
2017-09-20T16:45:46.307Z,22.8
2017-09-20T16:46:47.969Z,22.6
2017-09-20T16:47:49.635Z,21.6
2017-09-20T16:48:51.301Z,20.5
2017-09-20T16:49:52.961Z,20.6
2017-09-20T16:50:54.628Z,20.4
2017-09-20T16:51:56.300Z,21.9
2017-09-20T16:52:57.965Z,24.1
2017-09-20T16:53:59.623Z,21.7
2017-09-20T16:55:01.282Z,24.7
2017-09-20T16:56:02.957Z,23.2
2017-09-20T16:57:04.755Z,21.8
2017-09-20T16:58:06.419Z,22.1
2017-09-20T16:59:08.085Z,20.3
2017-09-20T17:00:09.925Z,20.0
2017-09-20T17:01:11.590Z,18.1
2017-09-20T17:02:13.260Z,20.5
2017-09-20T17:03:15.122Z,27.4
2017-09-20T17:04:16.767Z,21.7
2017-09-20T17:05:18.444Z,17.6
2017-09-20T17:06:20.332Z,19.2
2017-09-20T17:07:22.009Z,19.2
2017-09-20T17:08:23.658Z,21.3
2017-09-20T17:09:25.413Z,21.2
2017-09-20T17:10:27.077Z,19.0
2017-09-20T17:11:28.928Z,20.8
2017-09-20T17:12:30.594Z,16.4
2017-09-20T17:13:32.622Z,23.8
2017-09-20T17:14:34.342Z,18.0
2017-09-20T17:15:36.016Z,20.8
2017-09-20T17:16:39.707Z,20.4
2017-09-20T17:17:41.964Z,17.9
2017-09-20T17:18:43.624Z,18.7
2017-09-20T17:19:46.088Z,18.3
2017-09-20T17:20:47.754Z,19.5
2017-09-20T17:21:49.566Z,20.7
2017-09-20T17:22:51.472Z,16.8
2017-09-20T17:23:53.142Z,15.7
2017-09-20T17:24:55.173Z,21.3
2017-09-20T17:25:56.874Z,23.6
2017-09-20T17:26:58.673Z,18.5
2017-09-20T17:28:00.350Z,23.2
2017-09-20T17:29:02.013Z,19.3
2017-09-20T17:30:04.333Z,24.5
2017-09-20T17:31:05.987Z,21.8
2017-09-20T17:32:07.649Z,22.6
2017-09-20T17:33:09.309Z,20.0
2017-09-20T17:34:10.991Z,22.3
2017-09-20T17:35:12.745Z,20.6
2017-09-20T17:36:14.449Z,21.7
2017-09-20T17:37:16.125Z,24.0
2017-09-20T17:38:18.078Z,20.9
2017-09-20T17:39:19.740Z,23.3
2017-09-20T17:40:21.402Z,20.3
2017-09-20T17:41:23.072Z,20.7
2017-09-20T17:42:24.722Z,21.4
2017-09-20T17:43:26.388Z,24.0
2017-09-20T17:44:30.074Z,23.9
2017-09-20T17:45:31.523Z,42.1
2017-09-20T17:46:33.476Z,24.7
2017-09-20T17:47:35.127Z,25.4
2017-09-20T17:48:36.782Z,31.4
2017-09-20T17:49:38.737Z,26.4
2017-09-20T17:50:40.383Z,29.1
2017-09-20T17:51:42.063Z,28.7
2017-09-20T17:52:44.163Z,27.6
2017-09-20T17:53:45.830Z,27.6
2017-09-20T17:54:47.484Z,29.6
2017-09-20T17:55:49.536Z,30.6
2017-09-20T18:01:50.010Z,27.0
2017-09-20T18:02:51.669Z,26.0
2017-09-20T18:03:53.475Z,28.3
2017-09-20T18:04:55.143Z,27.4
2017-09-20T18:05:57.503Z,30.0
2017-09-20T18:06:59.952Z,26.8
2017-09-20T18:08:01.604Z,31.7
2017-09-20T18:09:03.289Z,31.7
2017-09-20T18:10:05.053Z,29.5
2017-09-20T18:11:06.726Z,28.7
2017-09-20T18:12:08.392Z,28.7
2017-09-20T18:13:10.069Z,26.7
2017-09-20T18:14:12.016Z,25.8
2017-09-20T18:15:14.355Z,29.7
2017-09-20T18:16:16.025Z,28.5
2017-09-20T18:17:17.879Z,31.0
2017-09-20T18:18:19.574Z,29.3
2017-09-20T18:19:24.078Z,34.9